Time;durP1;ratioP1;P1;durP2;ratioP2;P2;SDS_P1;SDS_P2;PMS_P1;PMS_P2;Temp;Humidity;BMP_temperature;BMP_pressure;BME280_temperature;BME280_humidity;BME280_pressure;Samples;Min_cycle;Max_cycle;Signal;HPM_P1;HPM_P2
2022/04/13 00:03:36;;;;;;;4.00;1.03;;;;;;;11.45;71.74;98900.25;8131145;29;20689;-72
2022/04/13 00:07:38;;;;;;;5.15;1.05;;;;;;;11.39;71.43;98902.09;8144721;29;20445;-72
2022/04/13 00:11:39;;;;;;;2.45;0.93;;;;;;;11.32;71.59;98903.09;8149833;29;20054;-72
2022/04/13 00:15:41;;;;;;;5.28;0.85;;;;;;;11.26;71.66;98916.16;8141370;29;20063;-73
2022/04/13 00:19:43;;;;;;;5.97;1.05;;;;;;;11.23;70.09;98917.06;8142972;29;20146;-73
2022/04/13 00:23:44;;;;;;;3.80;1.27;;;;;;;11.25;70.37;98917.03;8139387;29;20054;-72
2022/04/13 00:27:45;;;;;;;2.20;1.10;;;;;;;11.21;71.22;98924.03;8143725;29;20054;-73
2022/04/13 00:31:47;;;;;;;1.00;0.90;;;;;;;11.16;71.26;98933.63;8126625;29;20486;-72
2022/04/13 00:35:49;;;;;;;2.47;0.95;;;;;;;11.09;71.79;98930.25;8168605;29;20059;-73
2022/04/13 00:39:51;;;;;;;4.93;2.40;;;;;;;11.02;72.68;98944.22;8170278;29;20055;-73
2022/04/13 00:44:03;;;;;;;3.38;1.08;;;;;;;10.98;73.09;98942.53;8180065;29;20419;-73
2022/04/13 00:48:06;;;;;;;4.22;1.10;;;;;;;10.90;73.31;98945.22;8180411;29;20074;-73
2022/04/13 00:52:10;;;;;;;3.42;1.15;;;;;;;10.80;73.63;98946.25;8178230;29;20407;-72
2022/04/13 00:56:14;;;;;;;1.67;1.00;;;;;;;10.71;73.86;98948.06;8177261;29;20077;-73
2022/04/13 01:00:15;;;;;;;2.30;1.20;;;;;;;10.60;73.58;98943.03;8177157;29;20061;-73
2022/04/13 01:04:17;;;;;;;2.00;1.10;;;;;;;10.50;74.01;98942.25;8178440;29;20063;-73
2022/04/13 01:08:19;;;;;;;1.17;0.90;;;;;;;10.38;75.06;98944.97;8178761;29;20050;-73
2022/04/13 01:12:21;;;;;;;;;;;;;;;10.31;75.40;98950.25;8179676;29;20043;-72
2022/04/13 01:16:26;;;;;;;5.22;1.00;;;;;;;10.24;74.84;98941.69;8174898;29;19936;-72
2022/04/13 01:20:28;;;;;;;2.75;1.00;;;;;;;10.20;75.15;98940.81;8161740;29;20522;-72
2022/04/13 01:24:31;;;;;;;4.72;1.80;;;;;;;10.16;75.85;98951.25;8182184;29;20389;-72
2022/04/13 01:28:33;;;;;;;2.20;1.10;;;;;;;10.13;75.41;98952.13;8157813;29;20133;-72
2022/04/13 01:32:35;;;;;;;3.95;1.20;;;;;;;10.07;76.09;98959.13;8173646;29;20527;-72
2022/04/13 01:36:37;;;;;;;4.25;1.20;;;;;;;10.01;76.60;98954.84;8174284;29;20093;-72
2022/04/13 01:40:38;;;;;;;2.33;1.30;;;;;;;9.89;76.97;98954.97;8173891;29;20058;-73
2022/04/13 01:44:42;;;;;;;2.10;1.48;;;;;;;9.90;77.95;98960.13;8177861;28;20075;-73
2022/04/13 01:48:44;;;;;;;4.03;0.93;;;;;;;9.88;78.04;98967.06;8167988;29;20239;-73
2022/04/13 01:52:46;;;;;;;3.53;1.27;;;;;;;9.87;77.93;98962.72;8163326;29;20058;-73
2022/04/13 01:56:48;;;;;;;;;;;;;;;9.89;77.73;98966.19;8172409;29;20042;-73
2022/04/13 02:00:53;;;;;;;2.25;0.70;;;;;;;9.81;78.08;98964.53;8151125;29;19937;-73
2022/04/13 02:04:55;;;;;;;2.60;0.90;;;;;;;9.78;78.09;98964.56;8178561;29;20052;-73
2022/04/13 02:08:57;;;;;;;9.00;3.57;;;;;;;9.77;78.57;98973.22;8172339;29;20054;-73
2022/04/13 02:12:58;;;;;;;3.40;1.40;;;;;;;9.74;78.03;98971.50;8176802;29;20055;-73
2022/04/13 02:17:01;;;;;;;2.45;0.93;;;;;;;9.68;78.11;98974.13;8174419;29;20142;-73
2022/04/13 02:21:02;;;;;;;1.10;0.90;;;;;;;9.67;78.51;98970.66;8176813;29;20052;-73
2022/04/13 02:25:05;;;;;;;1.73;1.10;;;;;;;9.65;78.56;98968.97;8173370;29;20071;-73
2022/04/13 02:29:06;;;;;;;3.28;0.80;;;;;;;9.60;78.37;98978.50;8178381;29;20055;-73
2022/04/13 02:33:08;;;;;;;2.28;0.85;;;;;;;9.54;78.80;98965.63;8165226;29;20554;-73
2022/04/13 02:37:10;;;;;;;1.55;0.80;;;;;;;9.55;78.98;98969.94;8173493;29;20138;-72
2022/04/13 02:41:12;;;;;;;2.27;1.17;;;;;;;9.51;79.13;98971.66;8174687;29;20043;-73
2022/04/13 02:45:13;;;;;;;2.15;0.80;;;;;;;9.43;79.79;98975.19;8170022;29;20085;-73
2022/04/13 02:49:15;;;;;;;3.78;0.90;;;;;;;9.44;79.85;98971.72;8173578;29;20098;-73
2022/04/13 02:53:16;;;;;;;2.25;1.02;;;;;;;9.41;80.41;98975.19;8176165;29;20047;-73
2022/04/13 02:57:18;;;;;;;1.50;0.90;;;;;;;9.34;80.21;98981.28;8176388;29;20044;-73
2022/04/13 03:01:19;;;;;;;2.47;1.23;;;;;;;9.35;79.99;98970.91;8159288;29;20062;-73
2022/04/13 03:05:21;;;;;;;2.80;0.90;;;;;;;9.36;80.32;98972.63;8177637;29;20057;-73
2022/04/13 03:09:22;;;;;;;4.72;0.90;;;;;;;9.34;80.21;98969.19;8166292;29;20409;-73
2022/04/13 03:13:24;;;;;;;1.40;0.98;;;;;;;9.27;80.54;98966.63;8173854;29;20062;-73
2022/04/13 03:17:25;;;;;;;1.10;0.83;;;;;;;9.26;81.12;98970.09;8177309;29;20066;-73
2022/04/13 03:21:27;;;;;;;5.28;0.90;;;;;;;9.20;81.25;98978.78;8181403;29;20071;-73
2022/04/13 03:25:28;;;;;;;1.73;0.97;;;;;;;9.21;81.14;98982.22;8179518;29;20441;-73
2022/04/13 03:29:30;;;;;;;3.10;1.20;;;;;;;9.18;81.49;98984.84;8182024;29;20044;-72
2022/04/13 03:33:31;;;;;;;1.50;1.00;;;;;;;9.14;81.59;98983.09;8153274;28;20452;-73
2022/04/13 03:37:33;;;;;;;3.92;1.00;;;;;;;9.16;82.04;98984.00;8175424;29;20047;-73
2022/04/13 03:41:36;;;;;;;6.95;1.00;;;;;;;9.14;81.47;98983.97;8171890;29;20071;-73
2022/04/13 03:45:37;;;;;;;6.78;1.50;;;;;;;9.07;81.35;98988.34;8170291;29;20040;-73
2022/04/13 03:49:38;;;;;;;3.40;0.95;;;;;;;9.02;82.16;98986.66;8178444;29;20047;-73
2022/04/13 03:53:40;;;;;;;3.95;1.05;;;;;;;8.99;81.52;98979.75;8176444;29;20081;-73
2022/04/13 03:57:41;;;;;;;2.55;0.82;;;;;;;8.97;81.76;98996.13;8159115;29;20047;-73
2022/04/13 04:01:43;;;;;;;3.00;0.80;;;;;;;8.88;82.11;98996.19;8174903;29;20468;-73
2022/04/13 04:05:44;;;;;;;3.00;1.15;;;;;;;8.86;82.13;99003.97;8176724;29;20044;-73
2022/04/13 04:09:46;;;;;;;1.98;0.75;;;;;;;8.85;82.05;99002.25;8166748;29;20421;-72
2022/04/13 04:13:47;;;;;;;2.08;0.80;;;;;;;8.84;81.76;99004.84;8173200;29;20074;-72
2022/04/13 04:17:49;;;;;;;1.42;0.90;;;;;;;8.76;82.72;99017.78;8163112;29;20056;-73
2022/04/13 04:21:50;;;;;;;5.32;1.40;;;;;;;8.75;82.67;99019.53;8174266;29;20087;-72
2022/04/13 04:25:52;;;;;;;1.58;0.98;;;;;;;8.73;83.08;99029.03;8172558;29;20039;-73
2022/04/13 04:29:53;;;;;;;5.28;1.50;;;;;;;8.73;83.42;99033.34;8169870;29;20054;-73
2022/04/13 04:33:54;;;;;;;4.18;1.27;;;;;;;8.76;83.60;99036.78;8167287;29;20625;-72
2022/04/13 04:37:56;;;;;;;5.53;1.75;;;;;;;8.73;83.62;99036.78;8169835;29;20064;-73
2022/04/13 04:42:03;;;;;;;2.83;1.70;;;;;;;8.73;82.63;99035.94;8174418;29;20052;-72
2022/04/13 04:46:05;;;;;;;3.63;1.10;;;;;;;8.73;83.60;99036.78;8165488;29;20047;-73
2022/04/13 04:50:07;;;;;;;3.45;1.23;;;;;;;8.75;84.06;99031.59;8170378;29;20047;-72
2022/04/13 04:54:09;;;;;;;3.83;1.00;;;;;;;8.78;84.01;99032.44;8171361;29;20455;-72
2022/04/13 04:58:10;;;;;;;6.20;1.13;;;;;;;8.79;83.62;99031.59;8170605;29;20127;-72
2022/04/13 05:02:11;;;;;;;2.75;1.15;;;;;;;8.76;84.28;99021.25;8165346;29;20444;-72
2022/04/13 05:06:13;;;;;;;1.17;1.00;;;;;;;8.76;83.94;99033.31;8178404;29;20237;-72
2022/04/13 05:10:15;;;;;;;3.33;1.30;;;;;;;8.76;83.78;99034.19;8164844;29;20051;-72
2022/04/13 05:14:18;;;;;;;3.05;1.30;;;;;;;8.80;83.73;99035.06;8177493;29;20061;-72
2022/04/13 05:18:20;;;;;;;1.25;0.90;;;;;;;8.86;83.10;99029.00;8170530;28;20073;-72
2022/04/13 05:22:21;;;;;;;3.42;0.80;;;;;;;8.93;83.37;99049.66;8186789;29;20043;-72
2022/04/13 05:26:23;;;;;;;1.27;1.00;;;;;;;8.99;82.92;99049.66;8182345;29;20456;-72
2022/04/13 05:30:24;;;;;;;1.10;0.85;;;;;;;9.05;82.84;99059.13;8179309;29;20147;-72
2022/04/13 05:34:26;;;;;;;5.17;1.20;;;;;;;9.08;82.39;99059.97;8175823;29;20497;-72
2022/04/13 05:38:27;;;;;;;3.13;1.20;;;;;;;9.20;82.12;99074.63;8165105;29;20040;-73
2022/04/13 05:42:31;;;;;;;5.33;2.07;;;;;;;9.29;82.08;99073.72;8166620;29;20055;-72
2022/04/13 05:46:33;;;;;;;3.38;1.20;;;;;;;9.41;81.62;99083.16;8173922;29;20894;-73
2022/04/13 05:50:35;;;;;;;;;;;;;;;9.56;81.54;99081.38;8176286;29;20062;-71
2022/04/13 05:54:36;;;;;;;1.98;1.30;;;;;;;9.69;80.84;99077.84;8180078;29;20307;-74
2022/04/13 05:58:38;;;;;;;1.90;0.90;;;;;;;9.89;80.43;99082.91;8178818;29;20047;-74
2022/04/13 06:02:41;;;;;;;5.20;1.33;;;;;;;10.14;79.81;99080.13;8179209;29;20051;-74
2022/04/13 06:06:43;;;;;;;1.65;0.98;;;;;;;10.41;78.16;99099.81;8163268;29;20043;-72
2022/04/13 06:10:44;;;;;;;2.90;1.27;;;;;;;10.68;76.85;99084.00;8168540;29;20058;-74
2022/04/13 06:14:46;;;;;;;1.93;1.03;;;;;;;10.93;76.52;99091.53;8164720;29;20706;-74
2022/04/13 06:18:47;;;;;;;4.80;1.50;;;;;;;11.22;75.82;99107.66;8159671;29;20512;-74
2022/04/13 06:22:49;;;;;;;2.78;1.10;;;;;;;11.47;73.92;99123.81;8163723;29;20048;-73
2022/04/13 06:26:51;;;;;;;2.77;1.23;;;;;;;11.74;72.83;99131.28;8169741;29;20064;-73
2022/04/13 06:30:52;;;;;;;4.30;1.53;;;;;;;12.06;71.94;99130.88;8168479;29;20320;-72
2022/04/13 06:34:58;;;;;;;2.45;1.15;;;;;;;12.31;70.37;99120.94;8174841;29;20059;-71
2022/04/13 06:39:00;;;;;;;4.70;1.40;;;;;;;12.54;68.83;99123.16;8169335;29;20047;-71
2022/04/13 06:43:02;;;;;;;2.80;1.23;;;;;;;12.77;68.36;99132.34;8174303;29;20499;-73
2022/04/13 06:47:04;;;;;;;8.77;2.00;;;;;;;13.07;68.35;99136.13;8175795;29;20059;-73
2022/04/13 06:51:05;;;;;;;9.23;1.80;;;;;;;13.29;67.31;99135.75;8173758;29;20479;-72
2022/04/13 06:55:11;;;;;;;2.57;1.47;;;;;;;13.53;66.43;99144.81;8174644;29;20051;-71
2022/04/13 06:59:13;;;;;;;6.70;2.13;;;;;;;13.77;64.71;99139.97;8179813;29;20372;-72
2022/04/13 07:03:14;;;;;;;6.57;2.63;;;;;;;14.02;63.34;99149.00;8175278;29;20043;-73
2022/04/13 07:07:16;;;;;;;8.27;2.03;;;;;;;14.37;63.17;99145.59;8179338;29;20476;-74
2022/04/13 07:11:17;;;;;;;12.10;3.17;;;;;;;14.69;60.61;99138.72;8176145;29;20043;-74
2022/04/13 07:15:19;;;;;;;9.10;2.90;;;;;;;15.02;59.12;99150.94;8173865;29;20043;-73
2022/04/13 07:19:20;;;;;;;10.52;2.83;;;;;;;15.35;55.88;99151.78;8175273;29;20048;-72
2022/04/13 07:23:22;;;;;;;3.77;1.97;;;;;;;15.69;56.40;99151.72;8182218;29;20078;-73
2022/04/13 07:27:23;;;;;;;9.90;1.75;;;;;;;15.99;54.53;99155.22;8181869;29;20462;-73
2022/04/13 07:31:25;;;;;;;5.30;2.13;;;;;;;16.16;53.24;99148.63;8174183;29;20063;-72
2022/04/13 07:35:29;;;;;;;7.68;2.67;;;;;;;16.56;51.97;99145.56;8171830;29;20063;-73
2022/04/13 07:39:30;;;;;;;9.60;1.50;;;;;;;16.85;49.16;99153.34;8171108;29;20044;-73
2022/04/13 07:43:32;;;;;;;5.47;1.70;;;;;;;17.18;50.04;99153.09;8159497;29;20066;-73
2022/04/13 07:47:33;;;;;;;4.27;1.60;;;;;;;17.39;48.42;99152.34;8170142;29;20047;-74
2022/04/13 07:51:35;;;;;;;5.60;1.02;;;;;;;17.53;47.68;99144.81;8175661;29;20837;-74
2022/04/13 07:55:36;;;;;;;3.33;1.27;;;;;;;17.76;46.52;99157.13;8172550;29;20154;-73
2022/04/13 07:59:38;;;;;;;3.33;1.23;;;;;;;18.09;47.08;99156.78;8174763;29;20042;-74
2022/04/13 08:03:39;;;;;;;5.43;1.10;;;;;;;18.44;46.51;99165.91;8176948;29;20289;-74
2022/04/13 08:07:42;;;;;;;1.75;1.10;;;;;;;18.71;45.96;99167.47;8175118;29;20047;-73
2022/04/13 08:11:45;;;;;;;5.93;1.17;;;;;;;19.05;45.06;99163.41;8156841;29;20043;-74
2022/04/13 08:15:47;;;;;;;5.82;1.27;;;;;;;19.34;43.41;99167.41;8158352;29;20126;-74
2022/04/13 08:19:48;;;;;;;3.75;1.23;;;;;;;19.59;43.24;99176.00;8164312;29;20067;-74
2022/04/13 08:23:50;;;;;;;2.25;0.80;;;;;;;19.80;42.31;99181.22;8167967;29;20058;-74
2022/04/13 08:27:51;;;;;;;5.72;1.20;;;;;;;20.09;41.48;99177.22;8161719;29;20455;-74
2022/04/13 08:31:53;;;;;;;2.40;1.35;;;;;;;20.31;41.54;99185.88;8170468;29;20063;-72
2022/04/13 08:35:55;;;;;;;3.63;0.90;;;;;;;20.52;41.03;99184.88;8171531;29;20074;-72
2022/04/13 08:39:57;;;;;;;1.90;1.00;;;;;;;20.70;40.49;99183.13;8151802;29;20052;-72
2022/04/13 08:44:04;;;;;;;2.88;0.93;;;;;;;20.72;38.65;99183.88;8164056;29;20063;-72
2022/04/13 08:48:11;;;;;;;2.47;0.93;;;;;;;20.76;39.05;99188.09;8156465;29;20086;-71
2022/04/13 08:52:14;;;;;;;4.97;1.15;;;;;;;21.03;39.97;99191.16;8156569;29;20513;-74
2022/04/13 08:56:19;;;;;;;3.25;1.10;;;;;;;21.30;39.49;99191.56;8159049;29;20668;-74
2022/04/13 09:00:23;;;;;;;6.03;1.50;;;;;;;21.39;38.04;99199.00;8157220;29;20661;-74
2022/04/13 09:04:28;;;;;;;3.75;1.02;;;;;;;21.68;38.21;99184.25;8162892;29;20076;-73
2022/04/13 09:08:47;;;;;;;2.35;0.80;;;;;;;21.81;38.06;99195.03;8181773;29;20043;-73
2022/04/13 09:12:50;;;;;;;4.75;1.05;;;;;;;21.70;36.46;99182.38;8160218;29;20334;-72
2022/04/13 09:16:52;;;;;;;6.40;1.02;;;;;;;21.63;36.44;99190.72;8176718;29;20048;-70
2022/04/13 09:20:54;;;;;;;6.32;0.75;;;;;;;21.88;36.98;99182.34;8170288;29;20774;-72
2022/04/13 09:24:56;;;;;;;;;;;;;;;22.18;37.06;99182.50;8174099;29;20061;-72
2022/04/13 09:28:58;;;;;;;3.53;0.90;;;;;;;22.29;36.43;99190.72;8165158;29;20331;-72
2022/04/13 09:33:03;;;;;;;7.63;0.90;;;;;;;22.44;35.72;99191.63;8159599;29;20086;-72
2022/04/13 09:37:06;;;;;;;4.72;0.70;;;;;;;22.70;36.90;99206.91;8165695;29;20372;-72
2022/04/13 09:41:09;;;;;;;6.22;0.88;;;;;;;22.84;36.18;99201.72;8162404;29;20138;-72
2022/04/13 09:45:11;;;;;;;8.18;0.90;;;;;;;23.12;37.29;99208.03;8156049;29;20067;-72
2022/04/13 09:49:14;;;;;;;5.60;0.77;;;;;;;23.43;34.81;99199.13;8159497;29;20048;-71
2022/04/13 09:53:17;;;;;;;7.03;0.90;;;;;;;23.55;35.53;99198.41;8161722;29;20075;-71
2022/04/13 09:57:21;;;;;;;6.20;0.90;;;;;;;23.56;35.05;99204.53;8160952;29;20873;-71
2022/04/13 10:01:22;;;;;;;8.73;1.10;;;;;;;23.67;36.59;99202.97;8146130;29;20070;-71
2022/04/13 10:05:29;;;;;;;4.25;0.82;;;;;;;23.72;35.21;99208.00;8172644;29;20463;-72
2022/04/13 10:09:31;;;;;;;6.63;1.00;;;;;;;23.59;34.38;99205.25;8180215;29;20040;-72
2022/04/13 10:13:43;;;;;;;4.60;1.33;;;;;;;23.56;35.68;99204.53;8159591;29;20086;-72
2022/04/13 10:17:44;;;;;;;10.25;1.38;;;;;;;23.86;37.38;99207.13;8176557;29;20082;-72
2022/04/13 10:21:50;;;;;;;8.35;1.48;;;;;;;24.04;35.79;99212.16;8182790;29;20048;-72
2022/04/13 10:26:08;;;;;;;13.23;1.50;;;;;;;24.02;35.31;99194.63;8170734;29;20093;-72
2022/04/13 10:30:10;;;;;;;8.02;1.50;;;;;;;24.17;34.51;99198.13;8169633;29;20126;-72
2022/04/13 10:34:12;;;;;;;6.70;1.10;;;;;;;24.38;36.33;99199.44;8177138;29;20137;-72
2022/04/13 10:38:14;;;;;;;11.98;1.10;;;;;;;24.43;35.17;99197.38;8175046;29;20039;-72
2022/04/13 10:42:17;;;;;;;3.90;1.10;;;;;;;24.39;35.63;99195.84;8166163;29;20444;-71
2022/04/13 10:46:20;;;;;;;5.53;1.38;;;;;;;24.27;33.73;99193.94;8151474;29;20058;-71
2022/04/13 10:50:31;;;;;;;6.97;1.30;;;;;;;24.16;34.15;99191.13;8159699;29;20047;-71
2022/04/13 10:54:36;;;;;;;2.80;1.10;;;;;;;24.22;34.75;99196.03;8158666;29;20140;-71
2022/04/13 10:58:59;;;;;;;14.30;1.42;;;;;;;24.39;33.55;99190.53;8160617;29;20051;-71
2022/04/13 11:03:03;;;;;;;6.50;1.38;;;;;;;24.58;34.72;99179.56;8153794;29;20048;-71
2022/04/13 11:07:07;;;;;;;5.70;1.00;;;;;;;24.67;33.84;99187.78;8155877;29;20048;-71
2022/04/13 11:11:09;;;;;;;4.07;1.05;;;;;;;24.83;33.88;99176.16;8162468;29;20053;-71
2022/04/13 11:15:11;;;;;;;4.50;1.08;;;;;;;25.03;32.23;99178.38;8157609;29;20408;-71
2022/04/13 11:19:12;;;;;;;6.82;1.10;;;;;;;25.15;32.47;99177.56;8159656;29;20757;-71
2022/04/13 11:23:15;;;;;;;4.32;1.08;;;;;;;25.19;32.33;99180.84;8164774;29;20044;-71
2022/04/13 11:27:17;;;;;;;7.00;0.70;;;;;;;25.19;30.98;99172.88;8164192;29;20480;-71
2022/04/13 11:31:18;;;;;;;4.85;1.10;;;;;;;25.32;31.03;99175.56;8156240;29;20078;-71
2022/04/13 11:35:25;;;;;;;;;;;;;;;25.55;31.30;99169.50;8172578;29;20146;-71
2022/04/13 11:39:45;;;;;;;3.25;1.13;;;;;;;25.67;32.14;99167.78;8170033;29;20025;-71
2022/04/13 11:43:47;;;;;;;2.83;0.73;;;;;;;25.78;32.09;99166.13;8162419;29;20121;-71
2022/04/13 11:47:49;;;;;;;6.65;0.65;;;;;;;25.80;30.55;99166.84;8154775;29;20051;-72
2022/04/13 11:51:50;;;;;;;4.65;0.60;;;;;;;25.67;30.87;99170.44;8154806;29;20527;-71
2022/04/13 11:55:59;;;;;;;3.75;0.77;;;;;;;25.61;31.98;99177.03;8157639;29;20102;-71
2022/04/13 12:00:02;;;;;;;3.38;0.63;;;;;;;25.50;31.82;99163.66;8158033;29;20155;-71
2022/04/13 12:04:04;;;;;;;8.20;1.38;;;;;;;25.44;30.85;99158.75;8166579;29;20063;-71
2022/04/13 12:08:14;;;;;;;4.80;0.80;;;;;;;25.65;32.18;99159.06;8157126;29;20063;-72
2022/04/13 12:12:16;;;;;;;6.28;1.17;;;;;;;25.90;33.09;99161.75;8159398;29;20070;-71
2022/04/13 12:16:29;;;;;;;9.07;0.77;;;;;;;25.99;32.83;99161.06;8156411;29;20051;-71
2022/04/13 12:20:31;;;;;;;5.85;0.80;;;;;;;25.98;32.31;99150.53;8155339;29;20039;-71
2022/04/13 12:24:32;;;;;;;5.90;0.70;;;;;;;26.03;32.36;99153.72;8160807;29;20055;-71
2022/04/13 12:28:34;;;;;;;6.22;0.82;;;;;;;26.18;31.64;99158.78;8166498;29;20094;-71
2022/04/13 12:32:46;;;;;;;5.60;0.77;;;;;;;26.24;31.04;99156.66;8172250;29;20063;-69
2022/04/13 12:36:56;;;;;;;11.10;0.90;;;;;;;26.17;31.67;99161.56;8161687;29;20079;-71
2022/04/13 12:41:10;;;;;;;10.18;0.80;;;;;;;26.00;30.72;99164.59;8180697;29;20048;-70
2022/04/13 12:45:12;;;;;;;4.30;0.80;;;;;;;25.81;31.57;99162.38;8157210;29;20049;-71
2022/04/13 12:49:19;;;;;;;7.85;0.80;;;;;;;25.91;31.89;99155.47;8179891;29;20051;-69
2022/04/13 12:53:20;;;;;;;10.65;1.45;;;;;;;25.76;30.92;99165.38;8164097;29;20051;-72
2022/04/13 12:57:22;;;;;;;;;;;;;;;25.58;32.39;99153.34;8180434;29;20539;-71
2022/04/13 13:01:28;;;;;;;6.72;0.65;;;;;;;25.49;31.27;99157.47;8177194;29;19969;-71
2022/04/13 13:05:30;;;;;;;2.20;0.60;;;;;;;25.28;31.15;99153.63;8176067;29;20075;-72
2022/04/13 13:09:33;;;;;;;6.13;0.88;;;;;;;25.21;31.81;99160.34;8180173;29;20468;-71
2022/04/13 13:13:38;;;;;;;4.00;0.90;;;;;;;25.18;32.48;99157.91;8176499;29;20047;-71
2022/04/13 13:17:42;;;;;;;5.30;0.80;;;;;;;24.91;30.61;99157.91;8167841;29;20049;-71
2022/04/13 13:22:11;;;;;;;10.23;0.90;;;;;;;25.06;33.39;99150.75;8175565;29;20057;-70
2022/04/13 13:26:23;;;;;;;5.00;0.90;;;;;;;25.18;32.05;99155.25;8176011;29;20047;-72
2022/04/13 13:30:26;;;;;;;4.63;0.68;;;;;;;25.32;32.69;99151.66;8173640;29;20143;-72
2022/04/13 13:34:27;;;;;;;7.35;0.65;;;;;;;25.42;33.26;99155.34;8156878;29;20349;-72
2022/04/13 13:38:30;;;;;;;4.60;0.90;;;;;;;25.51;31.36;99152.06;8168210;29;20067;-72
2022/04/13 13:42:43;;;;;;;3.25;0.60;;;;;;;25.64;32.88;99146.72;8168511;29;20848;-72
2022/04/13 13:46:44;;;;;;;3.83;0.60;;;;;;;25.80;33.33;99158.03;8163697;29;20054;-72
2022/04/13 13:50:46;;;;;;;;;;;;;;;25.89;32.73;99152.91;8172866;29;20699;-71
2022/04/13 13:54:47;;;;;;;6.30;0.80;;;;;;;25.96;32.53;99155.97;8171703;29;19927;-72
2022/04/13 13:58:49;;;;;;;4.28;1.08;;;;;;;25.93;33.39;99148.22;8169828;29;20134;-72
2022/04/13 14:02:53;;;;;;;4.60;0.68;;;;;;;25.91;33.15;99152.81;8167904;29;20546;-72
2022/04/13 14:06:54;;;;;;;5.95;0.90;;;;;;;25.87;33.09;99144.19;8171821;29;20135;-72
2022/04/13 14:10:56;;;;;;;6.72;1.25;;;;;;;25.62;31.55;99152.16;8171155;29;20070;-72
2022/04/13 14:14:57;;;;;;;5.18;0.80;;;;;;;25.43;32.91;99155.25;8174027;29;20135;-72
2022/04/13 14:18:59;;;;;;;5.88;1.08;;;;;;;25.13;32.33;99149.34;8131676;29;20051;-71
2022/04/13 14:23:01;;;;;;;3.65;0.88;;;;;;;24.87;32.71;99159.06;8151107;29;20079;-71
2022/04/13 14:27:03;;;;;;;6.18;0.73;;;;;;;24.59;33.27;99157.38;8152490;29;20052;-71
2022/04/13 14:31:04;;;;;;;15.20;0.80;;;;;;;24.31;33.39;99168.94;8148562;29;20076;-71
2022/04/13 14:35:07;;;;;;;;;;;;;;;24.14;34.90;99164.69;8159531;29;20055;-71
2022/04/13 14:39:08;;;;;;;8.88;1.63;;;;;;;23.87;34.35;99161.94;8171966;29;19969;-71
2022/04/13 14:43:10;;;;;;;5.20;0.65;;;;;;;23.86;34.70;99159.41;8172443;29;20039;-71
2022/04/13 14:47:12;;;;;;;5.28;0.70;;;;;;;23.94;35.57;99159.78;8171860;29;20062;-71
2022/04/13 14:51:13;;;;;;;;;;;;;;;23.97;34.08;99164.91;8169343;29;20053;-71
2022/04/13 14:55:15;;;;;;;4.70;0.60;;;;;;;24.05;34.38;99166.09;8172765;29;19926;-71
2022/04/13 14:59:16;;;;;;;5.72;0.82;;;;;;;24.08;35.07;99170.38;8176576;29;20158;-71
2022/04/13 15:03:18;;;;;;;3.72;0.80;;;;;;;24.11;34.09;99165.72;8168638;29;20083;-71
2022/04/13 15:07:19;;;;;;;5.43;0.73;;;;;;;24.05;34.04;99159.94;8163584;29;20466;-73
2022/04/13 15:11:22;;;;;;;12.90;1.02;;;;;;;23.93;34.43;99161.59;8167774;29;20119;-71
2022/04/13 15:15:23;;;;;;;4.25;0.68;;;;;;;23.77;34.73;99169.66;8158804;29;20603;-73
2022/04/13 15:19:25;;;;;;;5.03;0.90;;;;;;;23.66;35.36;99168.59;8173468;29;20054;-71
2022/04/13 15:23:29;;;;;;;3.75;0.77;;;;;;;23.54;34.68;99167.53;8177330;29;20048;-71
2022/04/13 15:27:30;;;;;;;9.48;0.93;;;;;;;23.43;34.06;99169.97;8174098;29;20420;-71
2022/04/13 15:31:32;;;;;;;3.38;0.90;;;;;;;23.30;34.67;99169.00;8171586;29;20090;-71
2022/04/13 15:35:34;;;;;;;8.43;1.10;;;;;;;23.28;35.33;99173.53;8163755;29;20062;-71
2022/04/13 15:39:37;;;;;;;6.00;0.70;;;;;;;23.21;34.82;99171.28;8161623;29;20074;-71
2022/04/13 15:43:39;;;;;;;10.70;0.90;;;;;;;23.10;34.20;99170.19;8144802;29;20769;-71
2022/04/13 15:47:40;;;;;;;6.43;1.48;;;;;;;23.08;34.41;99177.38;8166661;29;20058;-71
2022/04/13 15:51:42;;;;;;;9.45;5.22;;;;;;;23.05;34.82;99188.16;8160131;29;20047;-71
2022/04/13 15:55:44;;;;;;;7.28;2.60;;;;;;;23.04;34.43;99186.44;8155024;29;20047;-70
2022/04/13 15:59:46;;;;;;;7.50;1.67;;;;;;;23.05;34.37;99188.16;8153488;29;20766;-71
2022/04/13 16:03:49;;;;;;;8.98;1.25;;;;;;;23.07;33.76;99195.06;8169172;29;20075;-71
2022/04/13 16:07:52;;;;;;;5.50;1.00;;;;;;;23.18;34.35;99197.09;8169149;29;20074;-71
2022/04/13 16:11:53;;;;;;;7.95;0.90;;;;;;;23.23;33.63;99202.97;8138329;29;20190;-71
2022/04/13 16:15:55;;;;;;;3.47;0.60;;;;;;;23.26;33.80;99196.63;8158594;29;20066;-71
2022/04/13 16:19:58;;;;;;;7.43;0.80;;;;;;;23.27;34.46;99195.69;8176242;29;20051;-71
2022/04/13 16:23:59;;;;;;;4.47;0.82;;;;;;;23.17;33.98;99201.53;8172069;29;20094;-71
2022/04/13 16:28:01;;;;;;;4.35;0.73;;;;;;;23.24;34.41;99203.81;8171828;29;20070;-71
2022/04/13 16:32:02;;;;;;;3.33;0.70;;;;;;;23.29;35.61;99204.38;8169074;29;20089;-72
2022/04/13 16:36:04;;;;;;;2.65;0.70;;;;;;;23.17;35.92;99198.91;8171822;29;20066;-71
2022/04/13 16:40:06;;;;;;;10.27;1.05;;;;;;;23.15;36.34;99190.16;8174582;29;20609;-71
2022/04/13 16:44:08;;;;;;;7.68;0.70;;;;;;;23.24;36.50;99193.22;8161486;29;20062;-71
2022/04/13 16:48:09;;;;;;;4.80;0.70;;;;;;;23.26;36.39;99186.03;8134518;29;20043;-71
2022/04/13 16:52:13;;;;;;;5.15;0.77;;;;;;;23.12;35.90;99174.44;8168060;29;20126;-71
2022/04/13 16:56:14;;;;;;;7.65;0.93;;;;;;;23.00;37.28;99180.50;8166090;29;20205;-71
2022/04/13 17:00:18;;;;;;;5.28;0.77;;;;;;;22.85;38.07;99170.78;8156134;29;20062;-71
2022/04/13 17:04:22;;;;;;;7.13;0.85;;;;;;;22.67;38.04;99171.81;8148794;29;20138;-71
2022/04/13 17:08:23;;;;;;;5.30;1.25;;;;;;;22.51;39.07;99182.41;8132364;29;20047;-71
2022/04/13 17:12:25;;;;;;;6.10;1.08;;;;;;;22.31;40.42;99179.09;8149535;29;20054;-71
2022/04/13 17:16:27;;;;;;;8.50;1.20;;;;;;;22.10;40.09;99176.78;8144853;29;20530;-70
2022/04/13 17:20:28;;;;;;;7.03;0.85;;;;;;;21.84;42.45;99178.16;8135052;29;20122;-70
2022/04/13 17:24:30;;;;;;;5.25;0.63;;;;;;;21.62;42.94;99186.38;8152078;29;20079;-70
2022/04/13 17:28:32;;;;;;;5.32;0.70;;;;;;;21.34;45.34;99186.97;8133916;29;20067;-71
2022/04/13 17:32:33;;;;;;;5.82;1.13;;;;;;;21.05;46.28;99186.66;8149322;29;20204;-69
2022/04/13 17:36:36;;;;;;;7.93;0.93;;;;;;;20.79;47.37;99192.34;8150665;29;20476;-71
2022/04/13 17:40:37;;;;;;;7.88;0.80;;;;;;;20.49;48.58;99203.47;8153432;29;20126;-71
2022/04/13 17:44:40;;;;;;;5.05;0.60;;;;;;;20.24;49.09;99208.16;8152511;29;20053;-71
2022/04/13 17:48:41;;;;;;;4.32;1.10;;;;;;;20.00;49.60;99214.56;8144975;29;20444;-71
2022/04/13 17:52:43;;;;;;;7.15;0.90;;;;;;;19.74;50.73;99213.09;8135395;29;20040;-70
2022/04/13 17:56:44;;;;;;;5.30;0.95;;;;;;;19.47;51.03;99215.13;8150742;29;20558;-70
2022/04/13 18:00:47;;;;;;;6.40;0.98;;;;;;;19.26;52.06;99219.56;8134474;29;20079;-70
2022/04/13 18:04:49;;;;;;;6.63;0.70;;;;;;;19.00;53.37;99224.13;8160011;29;20046;-70
2022/04/13 18:08:50;;;;;;;8.77;0.90;;;;;;;18.73;53.88;99229.66;8164969;29;20082;-71
2022/04/13 18:12:52;;;;;;;4.40;1.03;;;;;;;18.46;54.85;99226.31;8180380;29;20047;-70
2022/04/13 18:16:54;;;;;;;4.13;0.65;;;;;;;18.23;56.12;99228.06;8175193;29;20480;-71
2022/04/13 18:20:55;;;;;;;5.47;0.77;;;;;;;18.04;56.98;99237.56;8181868;29;20043;-71
2022/04/13 18:24:57;;;;;;;4.55;0.95;;;;;;;17.84;57.03;99235.66;8173854;29;20086;-71
2022/04/13 18:28:58;;;;;;;11.87;0.93;;;;;;;17.67;57.15;99236.22;8175462;28;20079;-71
2022/04/13 18:33:01;;;;;;;10.17;1.00;;;;;;;17.51;58.04;99249.03;8162064;29;20342;-71
2022/04/13 18:37:03;;;;;;;13.50;1.30;;;;;;;17.34;59.15;99247.91;8162539;29;20356;-71
2022/04/13 18:41:05;;;;;;;15.95;1.10;;;;;;;17.17;59.80;99253.72;8178764;29;20158;-69
2022/04/13 18:50:15;;;;;;;17.65;1.20;;;;;;;16.80;60.92;99269.78;8160893;29;20035;-70
2022/04/13 18:54:17;;;;;;;5.00;0.75;;;;;;;16.61;62.05;99278.22;8168715;29;20062;-71
2022/04/13 18:58:19;;;;;;;5.47;0.90;;;;;;;16.41;63.22;99277.94;8173972;29;20094;-71
2022/04/13 19:02:21;;;;;;;5.88;1.35;;;;;;;16.24;63.77;99282.84;8152826;29;20060;-71
2022/04/13 19:06:23;;;;;;;3.78;0.90;;;;;;;16.13;63.98;99277.88;8175252;29;20058;-71
2022/04/13 19:10:25;;;;;;;2.77;1.07;;;;;;;15.98;65.23;99291.44;8162475;29;20074;-71
2022/04/13 19:14:26;;;;;;;6.22;0.85;;;;;;;15.83;65.61;99305.81;8165129;29;20449;-71